Fort Myers, FL

11:26 PM EST on March 01, 2015 (GMT -0500)
Naples Municipal | Change Station
CLOSE
Current Station
Airport
Location: Naples,
Elevation: 10 ft
Nearby Weather Stations

Elev 10 ft 26.16 °N, 81.77 °W | Updated 33 minutes ago

Clear
Clear
70 °F
Feels Like 70 °F
N
4
Wind Variable Wind from ENE

Today
High -- | Low -- °F
--% Chance of Precip.
Yesterday
High -- | Low -- °F
Precip. -- in
6:51 AM 6:28 PM
Waxing Gibbous, 89% visible
Pressure 30.28 in
Visibility 9.0 miles
Clouds Clear
Dew Point 70 °F
Humidity 100%
Rainfall 0.17 in
Snow Depth Not available.
UV 0 out of 12
Pollen 9.80 out of 12
Air Quality Not available.
Flu Activity Not available.
METAR KAPF 020353Z AUTO 06003KT 9SM CLR 21/21 A3029 RMK AO2 SLP254 T02110211 $

More Conditions Fewer Conditions

Pressure 30.28 in
Visibility 9.0 miles
Clouds Clear
Dew Point 70 °F
Humidity 100%
Rainfall 0.17 in
Snow Depth Not available.
UV 0 out of 12
Pollen 9.80 out of 12
Air Quality Not available.
Flu Activity Not available.
METAR KAPF 020353Z AUTO 06003KT 9SM CLR 21/21 A3029 RMK AO2 SLP254 T02110211 $

More Conditions Fewer Conditions

10-Day Weather Forecast

Almanac

Astronomy

Mar. 01, 2015 Rise Set
Actual Time
Civil Twilight
Nautical Twilight
Astronomical Twilight
Moon
Length of Visible Light
Length of Day
Tomorrow will be .
, % of the Moon is Illuminated

Today's Extremes

State Highs State Lows

Community

WunderPhotos

Upload Photos

1,801,724 photos uploaded!

WunderBlogs® & News

Nearby

Air Quality

  Air Quality AQ Index Pollutant
Not available.

Snow Depth

Station Depth Elevation

Earthquake Activity

City Distance Mag. Time & Date
Minimum magnitude displayed is 2.5.

Coastal Water Temperatures

Place Temperature

Nearby Weather Stations